Boischatel, Canada
Current Conditions -  °F | °C
As of 9:00 AM on Thursday 23 Oct 2014 (Local Time) from CYQB Reporting Station
Overcast Overcast  
Wind Chill: 35°   Ceiling: 5400
Heat Index: 43°   Visibility: 30mi
Dew Point: 36°   Wind: 18mph
Humidity: 76%   Direction: 60°ENE
Pressure: 30.16"   Gusts: NA
Location:  46.9°N, 71.13°W
Report Text: CYQB 231300Z 06016KT 30SM FEW025 OVC054 06/02 A3016 RMK SC1SC7 SLP217
Loading
Personal Weather Stations






























Interactive Weather Map
Tropical Storm Tracking
New forecast layout! Learn more

10-Day Weather Forecast

Advertisements
Track Severe Weather on mobile